Time;durP1;ratioP1;P1;durP2;ratioP2;P2;SDS_P1;SDS_P2;PMS_P1;PMS_P2;Temp;Humidity;BMP_temperature;BMP_pressure;BME280_temperature;BME280_humidity;BME280_pressure;Samples;Min_cycle;Max_cycle;Signal;HPM_P1;HPM_P2
2023/08/22 00:01:04;;;;;;;10.57;7.87;;;23.60;99.90;;;;;;5089217;28;20282;-67
2023/08/22 00:03:30;;;;;;;7.80;6.83;;;23.60;99.90;;;;;;5089224;28;20268;-67
2023/08/22 00:05:56;;;;;;;10.00;7.70;;;23.60;99.90;;;;;;5088036;28;20192;-67
2023/08/22 00:08:21;;;;;;;10.47;8.63;;;23.50;99.90;;;;;;5089258;28;20183;-67
2023/08/22 00:10:47;;;;;;;10.83;7.80;;;23.30;99.90;;;;;;5089085;28;20417;-67
2023/08/22 00:13:13;;;;;;;13.00;8.30;;;23.20;99.90;;;;;;5089244;28;20215;-67
2023/08/22 00:15:39;;;;;;;12.30;7.93;;;23.20;99.90;;;;;;5087102;28;20326;-67
2023/08/22 00:18:05;;;;;;;8.40;7.00;;;23.20;99.90;;;;;;5088146;28;20631;-67
2023/08/22 00:20:31;;;;;;;8.60;7.70;;;23.30;99.90;;;;;;5088808;28;20456;-67
2023/08/22 00:22:56;;;;;;;10.50;6.70;;;23.40;99.90;;;;;;5088527;28;20183;-68
2023/08/22 00:25:22;;;;;;;9.23;8.10;;;23.40;99.90;;;;;;5088833;28;20943;-67
2023/08/22 00:27:48;;;;;;;14.80;8.40;;;23.40;99.90;;;;;;5088704;28;20243;-68
2023/08/22 00:30:13;;;;;;;13.70;8.67;;;23.30;99.90;;;;;;5087712;28;20296;-67
2023/08/22 00:32:39;;;;;;;9.83;7.00;;;23.30;99.90;;;;;;5088680;28;20212;-66
2023/08/22 00:35:05;;;;;;;15.90;8.43;;;23.30;99.90;;;;;;5088808;28;20223;-67
2023/08/22 00:37:30;;;;;;;15.63;8.23;;;23.20;99.90;;;;;;5089178;28;20187;-67
2023/08/22 00:39:56;;;;;;;12.80;8.17;;;23.20;99.90;;;;;;5088913;28;20908;-67
2023/08/22 00:42:22;;;;;;;9.50;7.53;;;23.20;99.90;;;;;;5092695;28;20188;-67
2023/08/22 00:44:47;;;;;;;9.50;7.93;;;23.20;99.90;;;;;;5092800;28;20216;-67
2023/08/22 00:47:14;;;;;;;11.30;7.83;;;23.10;99.90;;;;;;5092985;28;20194;-67
2023/08/22 00:49:40;;;;;;;9.30;8.27;;;23.10;99.90;;;;;;5091228;28;20199;-67
2023/08/22 00:52:07;;;;;;;11.20;8.33;;;23.10;99.90;;;;;;5092758;28;20425;-67
2023/08/22 00:54:33;;;;;;;12.27;8.07;;;23.00;99.90;;;;;;5092348;28;20474;-67
2023/08/22 00:56:59;;;;;;;9.97;8.13;;;22.80;99.90;;;;;;5092408;28;20921;-67
2023/08/22 00:59:26;;;;;;;9.47;8.33;;;22.80;99.90;;;;;;5091047;28;20591;-67
2023/08/22 01:01:51;;;;;;;10.90;8.60;;;22.70;99.90;;;;;;5092240;28;20437;-67
2023/08/22 01:04:18;;;;;;;12.40;8.90;;;22.70;99.90;;;;;;5092103;28;20438;-67
2023/08/22 01:07:02;;;;;;;15.50;9.33;;;22.70;99.90;;;;;;5091935;28;20274;-67
2023/08/22 01:09:42;;;;;;;10.03;9.03;;;22.60;99.90;;;;;;5091854;28;20808;-67
2023/08/22 01:12:22;;;;;;;9.50;8.13;;;22.60;99.90;;;;;;5091705;28;20511;-67
2023/08/22 01:15:00;;;;;;;10.20;8.47;;;22.50;99.90;;;;;;5091342;28;20476;-67
2023/08/22 01:17:27;;;;;;;13.43;8.10;;;22.50;99.90;;;;;;5091507;28;20409;-66
2023/08/22 01:19:53;;;;;;;13.63;9.53;;;22.40;99.90;;;;;;5091509;28;20412;-67
2023/08/22 01:22:24;;;;;;;13.53;8.60;;;22.30;99.90;;;;;;5091185;28;20420;-67
2023/08/22 01:24:49;;;;;;;13.90;8.87;;;22.20;99.90;;;;;;5091246;28;20203;-67
2023/08/22 01:27:16;;;;;;;15.33;8.30;;;22.20;99.90;;;;;;5091063;28;20925;-67
2023/08/22 01:29:53;;;;;;;10.53;8.57;;;22.20;99.90;;;;;;5091135;28;20220;-67
2023/08/22 01:32:27;;;;;;;14.07;9.30;;;22.20;99.90;;;;;;5089592;28;20982;-67
2023/08/22 01:35:00;;;;;;;8.83;7.90;;;22.20;99.90;;;;;;5090966;28;20857;-67
2023/08/22 01:37:27;;;;;;;13.10;8.67;;;22.20;99.90;;;;;;5091120;28;20425;-68
2023/08/22 01:39:55;;;;;;;10.60;9.03;;;22.20;99.90;;;;;;5090952;28;20417;-67
2023/08/22 01:42:25;;;;;;;11.80;9.70;;;22.20;99.90;;;;;;5090951;28;20448;-68
2023/08/22 01:44:51;;;;;;;11.40;8.10;;;22.20;99.90;;;;;;5090777;28;20448;-67
2023/08/22 01:47:16;;;;;;;10.70;8.97;;;22.20;99.90;;;;;;5072447;28;20888;-67
2023/08/22 01:49:42;;;;;;;10.50;9.20;;;22.10;99.90;;;;;;5090770;28;20184;-67
2023/08/22 01:52:08;;;;;;;14.10;8.80;;;22.10;99.90;;;;;;5090659;28;20188;-67
2023/08/22 01:54:37;;;;;;;8.23;7.10;;;22.20;99.90;;;;;;5090295;28;20225;-67
2023/08/22 01:57:02;;;;;;;12.60;8.97;;;22.20;99.90;;;;;;5090637;28;20606;-67
2023/08/22 01:59:28;;;;;;;20.40;8.43;;;22.10;99.90;;;;;;5088969;28;20422;-67
2023/08/22 02:01:54;;;;;;;9.73;8.73;;;21.90;99.90;;;;;;5090530;28;20748;-67
2023/08/22 02:04:19;;;;;;;10.50;7.57;;;21.90;99.90;;;;;;5090356;28;20214;-67
2023/08/22 02:06:46;;;;;;;16.93;8.50;;;21.90;99.90;;;;;;5090514;28;20189;-67
2023/08/22 02:09:13;;;;;;;11.83;8.80;;;22.00;99.90;;;;;;5090217;28;20380;-67
2023/08/22 02:11:38;;;;;;;11.37;8.73;;;22.10;99.90;;;;;;5090190;28;20531;-67
2023/08/22 02:14:04;;;;;;;9.47;7.90;;;22.10;99.90;;;;;;5088537;28;21348;-67
2023/08/22 02:16:30;;;;;;;23.23;8.70;;;22.10;99.90;;;;;;5088767;28;20266;-67
2023/08/22 02:18:55;;;;;;;9.77;7.57;;;22.20;99.90;;;;;;5090054;28;20187;-67
2023/08/22 02:21:21;;;;;;;13.70;9.10;;;22.20;99.90;;;;;;5088756;28;20185;-67
2023/08/22 02:23:46;;;;;;;20.17;10.87;;;22.20;99.90;;;;;;5089980;28;20663;-67
2023/08/22 02:26:12;;;;;;;12.67;8.93;;;22.30;99.90;;;;;;5089754;28;20222;-67
2023/08/22 02:28:37;;;;;;;20.97;9.57;;;22.30;99.90;;;;;;5088272;28;20198;-67
2023/08/22 02:31:03;;;;;;;12.27;9.03;;;22.30;99.90;;;;;;5089669;28;20264;-67
2023/08/22 02:33:29;;;;;;;12.07;8.80;;;22.30;99.90;;;;;;5089598;28;20589;-68
2023/08/22 02:35:54;;;;;;;15.40;9.27;;;22.30;99.90;;;;;;5088120;28;20651;-68
2023/08/22 02:38:20;;;;;;;11.17;9.23;;;22.30;99.90;;;;;;5089442;28;20183;-67
2023/08/22 02:40:46;;;;;;;10.73;8.63;;;22.30;99.90;;;;;;5089579;28;20184;-68
2023/08/22 02:43:12;;;;;;;11.00;8.10;;;22.30;99.90;;;;;;5089574;28;20179;-66
2023/08/22 02:45:37;;;;;;;10.90;9.03;;;22.30;99.90;;;;;;5089786;28;20203;-66
2023/08/22 02:48:04;;;;;;;9.20;8.30;;;22.20;99.90;;;;;;5088009;28;20187;-67
2023/08/22 02:50:30;;;;;;;10.27;8.47;;;22.30;99.90;;;;;;5089872;28;20192;-67
2023/08/22 02:52:55;;;;;;;12.83;9.10;;;22.20;99.90;;;;;;5088029;28;20436;-67
2023/08/22 02:55:21;;;;;;;13.03;7.97;;;22.30;99.90;;;;;;5089262;28;20250;-66
2023/08/22 02:57:46;;;;;;;18.83;9.00;;;22.30;99.90;;;;;;5071158;28;20182;-67
2023/08/22 03:00:13;;;;;;;11.60;8.60;;;22.30;99.90;;;;;;5089356;28;20189;-67
2023/08/22 03:02:39;;;;;;;12.30;9.60;;;22.20;99.90;;;;;;5089375;28;20554;-69
2023/08/22 03:05:08;;;;;;;12.10;9.40;;;22.10;99.90;;;;;;5087493;28;21309;-68
2023/08/22 03:07:34;;;;;;;12.60;8.73;;;22.10;99.90;;;;;;5089456;28;20416;-67
2023/08/22 03:09:59;;;;;;;13.63;8.90;;;22.10;99.90;;;;;;5089478;28;20444;-67
2023/08/22 03:12:25;;;;;;;13.27;9.30;;;22.00;99.90;;;;;;5089505;28;20195;-67
2023/08/22 03:14:51;;;;;;;15.43;9.80;;;22.00;99.90;;;;;;5089344;28;20241;-67
2023/08/22 03:17:16;;;;;;;13.30;9.90;;;22.00;99.90;;;;;;5089499;28;20260;-67
2023/08/22 03:19:42;;;;;;;11.27;9.10;;;21.90;99.90;;;;;;5089880;28;20184;-68
2023/08/22 03:22:08;;;;;;;9.73;7.93;;;21.90;99.90;;;;;;5089810;28;20187;-67
2023/08/22 03:24:33;;;;;;;15.90;8.97;;;21.90;99.90;;;;;;5089967;28;20302;-67
2023/08/22 03:26:59;;;;;;;11.87;9.67;;;21.90;99.90;;;;;;5089704;28;20724;-67
2023/08/22 03:29:25;;;;;;;14.00;9.20;;;21.90;99.90;;;;;;5089780;28;20567;-67
2023/08/22 03:31:50;;;;;;;17.03;9.93;;;21.90;99.90;;;;;;5089809;28;20273;-67
2023/08/22 03:34:16;;;;;;;11.43;9.90;;;21.90;99.90;;;;;;5089400;28;20230;-67
2023/08/22 03:36:42;;;;;;;14.77;8.37;;;21.90;99.90;;;;;;5089471;28;20265;-67
2023/08/22 03:39:07;;;;;;;12.60;9.27;;;21.90;99.90;;;;;;5089166;28;20714;-67
2023/08/22 03:41:33;;;;;;;17.10;9.80;;;21.90;99.90;;;;;;5088925;28;20184;-67
2023/08/22 03:43:59;;;;;;;10.13;8.70;;;21.90;99.90;;;;;;5088762;28;20322;-67
2023/08/22 03:46:24;;;;;;;18.73;9.73;;;21.90;99.90;;;;;;5088767;28;20222;-67
2023/08/22 03:48:50;;;;;;;11.37;9.10;;;21.90;99.90;;;;;;5088648;28;20208;-66
2023/08/22 03:51:15;;;;;;;11.73;9.40;;;21.90;99.90;;;;;;5088771;28;20266;-66
2023/08/22 03:53:41;;;;;;;12.83;9.80;;;21.80;99.90;;;;;;5088536;28;21024;-67
2023/08/22 03:56:06;;;;;;;14.43;9.50;;;21.80;99.90;;;;;;5088767;28;20183;-70
2023/08/22 03:58:33;;;;;;;16.33;9.90;;;21.80;99.90;;;;;;5088558;28;20189;-70
2023/08/22 04:01:05;;;;;;;11.27;10.07;;;21.70;99.90;;;;;;5086962;28;20182;-70
2023/08/22 04:03:31;;;;;;;10.03;8.40;;;21.70;99.90;;;;;;5088580;28;20450;-70
2023/08/22 04:05:58;;;;;;;14.33;9.80;;;21.70;99.90;;;;;;5087277;28;20431;-70
2023/08/22 04:08:24;;;;;;;10.03;8.80;;;21.60;99.90;;;;;;5088687;28;20218;-71
2023/08/22 04:10:54;;;;;;;13.03;9.90;;;21.70;99.90;;;;;;5087515;28;20440;-70
2023/08/22 04:13:19;;;;;;;12.30;8.73;;;21.60;99.90;;;;;;5086842;28;20421;-70
2023/08/22 04:15:45;;;;;;;12.33;10.13;;;21.50;99.90;;;;;;5088146;28;20468;-70
2023/08/22 04:18:11;;;;;;;13.73;10.03;;;21.50;99.90;;;;;;5091176;28;20178;-70
2023/08/22 04:20:37;;;;;;;16.20;9.47;;;21.40;99.90;;;;;;5091099;28;20189;-69
2023/08/22 04:23:02;;;;;;;13.40;9.50;;;21.30;99.90;;;;;;5089320;28;20182;-71
2023/08/22 04:25:28;;;;;;;16.30;9.80;;;21.40;99.90;;;;;;5091066;28;20621;-71
2023/08/22 04:27:53;;;;;;;12.27;9.50;;;21.40;99.90;;;;;;5091141;28;20300;-70
2023/08/22 04:30:19;;;;;;;11.30;9.63;;;21.40;99.90;;;;;;5090929;28;20196;-70
2023/08/22 04:32:45;;;;;;;11.03;9.47;;;21.40;99.90;;;;;;5090855;28;20192;-70
2023/08/22 04:35:10;;;;;;;12.50;9.90;;;21.50;99.90;;;;;;5089232;28;20275;-70
2023/08/22 04:37:36;;;;;;;12.40;10.10;;;21.50;99.90;;;;;;5090795;28;20838;-70
2023/08/22 04:40:03;;;;;;;12.60;10.40;;;21.50;99.90;;;;;;5089427;28;20712;-70
2023/08/22 04:42:29;;;;;;;11.80;9.27;;;21.40;99.90;;;;;;5090780;28;20185;-71
2023/08/22 04:44:55;;;;;;;13.43;10.00;;;21.30;99.90;;;;;;5090575;28;20450;-71
2023/08/22 04:47:20;;;;;;;16.00;9.90;;;21.30;99.90;;;;;;5090562;28;20516;-71
2023/08/22 04:49:46;;;;;;;17.43;9.60;;;21.30;99.90;;;;;;5090670;28;20274;-71
2023/08/22 04:52:12;;;;;;;11.67;8.93;;;21.40;99.90;;;;;;5090459;28;20181;-71
2023/08/22 04:54:38;;;;;;;10.83;9.73;;;21.30;99.90;;;;;;5090187;28;20276;-71
2023/08/22 04:57:03;;;;;;;12.10;9.80;;;21.20;99.90;;;;;;5090553;28;20769;-70
2023/08/22 04:59:29;;;;;;;11.43;9.50;;;21.30;99.90;;;;;;5090466;28;20726;-70
2023/08/22 05:01:55;;;;;;;11.60;8.60;;;21.30;99.90;;;;;;5090267;28;20514;-71
2023/08/22 05:04:20;;;;;;;11.70;9.53;;;21.40;99.90;;;;;;5090093;28;20638;-71
2023/08/22 05:06:46;;;;;;;13.10;8.27;;;21.40;99.90;;;;;;5090046;28;20209;-70
2023/08/22 05:09:16;;;;;;;13.60;9.00;;;21.40;99.90;;;;;;5090177;28;20237;-71
2023/08/22 05:11:42;;;;;;;11.10;9.57;;;21.50;99.90;;;;;;5090182;28;20188;-70
2023/08/22 05:14:09;;;;;;;11.73;10.00;;;21.50;99.90;;;;;;5089872;28;20464;-70
2023/08/22 05:16:35;;;;;;;12.13;9.63;;;21.50;99.90;;;;;;5090153;28;20408;-70
2023/08/22 05:19:00;;;;;;;15.73;10.50;;;21.50;99.90;;;;;;5090067;28;20508;-71
2023/08/22 05:21:26;;;;;;;11.80;9.50;;;21.50;99.90;;;;;;5088641;28;20570;-71
2023/08/22 05:23:52;;;;;;;11.50;10.00;;;21.60;99.90;;;;;;5089855;28;20205;-71
2023/08/22 05:26:17;;;;;;;16.77;9.37;;;21.70;99.90;;;;;;5087896;28;20667;-69
2023/08/22 05:28:43;;;;;;;13.70;9.60;;;21.80;99.90;;;;;;5089887;28;20190;-70
2023/08/22 05:31:17;;;;;;;12.03;9.70;;;21.80;99.90;;;;;;5088229;28;20199;-69
2023/08/22 05:33:43;;;;;;;16.10;9.57;;;21.90;99.90;;;;;;5089653;28;20902;-70
2023/08/22 05:36:08;;;;;;;12.30;9.50;;;21.90;99.90;;;;;;5088198;28;20412;-69
2023/08/22 05:38:34;;;;;;;13.13;9.60;;;22.00;99.90;;;;;;5089763;28;20557;-71
2023/08/22 05:40:59;;;;;;;10.60;9.50;;;22.00;99.90;;;;;;5089676;28;20287;-70
2023/08/22 05:43:25;;;;;;;10.87;9.37;;;22.10;99.90;;;;;;5070949;28;20194;-70
2023/08/22 05:45:51;;;;;;;10.77;9.30;;;22.10;99.90;;;;;;5088070;28;20193;-70
2023/08/22 05:48:16;;;;;;;10.00;9.00;;;22.20;99.90;;;;;;5087911;28;20273;-70
2023/08/22 05:50:42;;;;;;;11.10;9.60;;;22.40;99.90;;;;;;5089881;28;20201;-70
2023/08/22 05:53:07;;;;;;;14.73;10.30;;;22.50;99.90;;;;;;5088406;28;20187;-70
2023/08/22 05:55:33;;;;;;;11.00;9.60;;;22.70;99.90;;;;;;5089670;28;20228;-69
2023/08/22 05:57:58;;;;;;;10.70;9.53;;;22.70;99.90;;;;;;5089859;28;20209;-69
2023/08/22 06:00:24;;;;;;;13.07;9.60;;;22.80;99.90;;;;;;5089702;28;20188;-70
2023/08/22 06:02:49;;;;;;;14.27;9.60;;;22.90;99.90;;;;;;5089262;28;20191;-70
2023/08/22 06:05:15;;;;;;;14.17;9.73;;;22.90;99.90;;;;;;5088992;28;20214;-70
2023/08/22 06:07:41;;;;;;;10.60;9.40;;;23.00;99.90;;;;;;5089067;28;20200;-71
2023/08/22 06:10:07;;;;;;;12.23;8.37;;;23.10;99.90;;;;;;5089078;28;20430;-72
2023/08/22 06:12:32;;;;;;;17.93;9.87;;;23.20;99.90;;;;;;5087636;28;20207;-71
2023/08/22 06:14:58;;;;;;;13.50;9.33;;;23.30;99.90;;;;;;5088628;28;20479;-71
2023/08/22 06:17:23;;;;;;;11.53;9.40;;;23.40;99.90;;;;;;5088867;28;20677;-72
2023/08/22 06:19:49;;;;;;;10.23;9.00;;;23.50;99.90;;;;;;5087248;28;20192;-71
2023/08/22 06:22:15;;;;;;;11.60;8.83;;;23.70;99.90;;;;;;5088507;28;20585;-70
2023/08/22 06:24:40;;;;;;;12.37;8.50;;;23.80;99.90;;;;;;5088688;28;20278;-71
2023/08/22 06:27:06;;;;;;;14.93;9.90;;;24.00;99.90;;;;;;5087121;28;20276;-71
2023/08/22 06:29:32;;;;;;;21.57;9.10;;;24.00;99.90;;;;;;5088885;28;20201;-71
2023/08/22 06:32:00;;;;;;;13.77;8.80;;;24.10;99.90;;;;;;5088664;28;20568;-71
2023/08/22 06:34:26;;;;;;;12.93;9.00;;;24.30;99.90;;;;;;5088591;28;20964;-71
2023/08/22 06:36:51;;;;;;;14.27;9.60;;;24.40;99.90;;;;;;5070358;28;20423;-71
2023/08/22 06:39:17;;;;;;;10.97;9.00;;;24.50;99.90;;;;;;5087601;28;20963;-70
2023/08/22 06:41:43;;;;;;;12.53;9.00;;;24.60;99.90;;;;;;5086780;28;20196;-70
2023/08/22 06:44:09;;;;;;;16.93;8.27;;;24.70;99.90;;;;;;5087031;28;20919;-71
2023/08/22 06:46:38;;;;;;;12.13;8.77;;;24.80;99.90;;;;;;5086950;28;20197;-70
2023/08/22 06:49:04;;;;;;;10.00;9.00;;;24.90;99.90;;;;;;5088425;28;20422;-70
2023/08/22 06:51:31;;;;;;;9.77;8.77;;;25.00;99.90;;;;;;5088212;28;20422;-70
2023/08/22 06:53:57;;;;;;;11.20;8.60;;;24.90;99.90;;;;;;5088169;28;20450;-70
2023/08/22 06:56:22;;;;;;;9.30;8.40;;;24.90;99.90;;;;;;5086928;28;20426;-70
2023/08/22 06:58:48;;;;;;;9.83;8.30;;;25.00;99.90;;;;;;5088617;28;20661;-70
2023/08/22 07:01:14;;;;;;;12.77;9.03;;;25.10;99.90;;;;;;5088475;28;20186;-70
2023/08/22 07:03:41;;;;;;;9.10;8.20;;;25.10;99.90;;;;;;5088501;28;20253;-72
2023/08/22 07:06:07;;;;;;;12.13;8.73;;;24.90;99.90;;;;;;5088571;28;20178;-71
2023/08/22 07:08:33;;;;;;;10.03;9.00;;;24.90;99.90;;;;;;5086892;28;21232;-71
2023/08/22 07:11:04;;;;;;;20.60;9.43;;;24.90;99.90;;;;;;5088502;28;20180;-72
2023/08/22 07:13:32;;;;;;;10.73;8.43;;;24.90;99.90;;;;;;5088421;28;20741;-70
2023/08/22 07:15:58;;;;;;;14.63;9.13;;;24.80;99.90;;;;;;5086877;28;20517;-70
2023/08/22 07:18:23;;;;;;;11.80;8.30;;;24.80;99.90;;;;;;5088531;28;20479;-70
2023/08/22 07:20:51;;;;;;;9.80;8.30;;;24.80;99.90;;;;;;5088526;28;20185;-70
2023/08/22 07:23:18;;;;;;;10.73;7.87;;;24.90;99.90;;;;;;5088660;28;20412;-70
2023/08/22 07:25:51;;;;;;;9.00;8.07;;;24.90;99.90;;;;;;5086670;28;20432;-70
2023/08/22 07:28:17;;;;;;;11.17;7.50;;;24.90;99.90;;;;;;5088301;28;20434;-70
2023/08/22 07:30:47;;;;;;;10.40;6.60;;;25.00;99.90;;;;;;5086691;28;20861;-70
2023/08/22 07:33:13;;;;;;;7.87;7.10;;;25.10;99.90;;;;;;5088222;28;20426;-70
2023/08/22 07:35:39;;;;;;;8.80;7.20;;;25.10;99.90;;;;;;5087668;28;20470;-70
2023/08/22 07:38:05;;;;;;;13.93;6.80;;;25.10;99.90;;;;;;5087693;28;20416;-70
2023/08/22 07:40:32;;;;;;;9.27;6.77;;;25.20;99.90;;;;;;5086013;28;20421;-71
2023/08/22 07:42:59;;;;;;;8.87;5.70;;;25.20;99.90;;;;;;5086083;28;20181;-70
2023/08/22 07:45:25;;;;;;;10.13;6.70;;;25.30;99.90;;;;;;5085932;28;20446;-70
2023/08/22 07:47:51;;;;;;;10.50;7.30;;;25.40;99.90;;;;;;5087757;28;20439;-70
2023/08/22 07:50:17;;;;;;;8.07;7.10;;;25.40;99.90;;;;;;5085885;28;20732;-70
2023/08/22 07:52:42;;;;;;;9.23;7.13;;;25.50;99.90;;;;;;5087569;28;20494;-70
2023/08/22 07:55:09;;;;;;;8.90;7.07;;;25.60;99.90;;;;;;5087266;28;20270;-71
2023/08/22 07:57:34;;;;;;;7.23;6.27;;;25.60;99.90;;;;;;5087671;28;20205;-70
2023/08/22 08:00:00;;;;;;;17.07;8.13;;;25.70;99.90;;;;;;5086095;28;20512;-70
2023/08/22 08:02:27;;;;;;;9.40;7.50;;;25.70;99.90;;;;;;5087950;28;20181;-70
2023/08/22 08:04:52;;;;;;;7.77;6.97;;;25.90;99.90;;;;;;5087875;28;20211;-70
2023/08/22 08:07:19;;;;;;;11.60;7.10;;;26.00;99.90;;;;;;5088040;28;20428;-69
2023/08/22 08:09:45;;;;;;;10.23;6.63;;;26.00;99.90;;;;;;5086461;28;20530;-69
2023/08/22 08:12:11;;;;;;;8.83;8.00;;;26.10;99.90;;;;;;5086617;28;20985;-70
2023/08/22 08:14:37;;;;;;;14.43;6.77;;;26.20;99.90;;;;;;5086282;28;20221;-70
2023/08/22 08:17:03;;;;;;;8.40;6.90;;;26.20;99.90;;;;;;5086565;28;20913;-69
2023/08/22 08:19:28;;;;;;;6.93;6.33;;;26.30;99.90;;;;;;5088027;28;20182;-70
2023/08/22 08:21:54;;;;;;;10.00;6.90;;;26.40;99.90;;;;;;5087829;28;20680;-70
2023/08/22 08:24:19;;;;;;;7.67;6.70;;;26.50;99.90;;;;;;5087668;28;20592;-70
2023/08/22 08:26:45;;;;;;;9.30;6.80;;;26.60;99.90;;;;;;5087808;28;20190;-71
2023/08/22 08:29:10;;;;;;;6.17;5.53;;;26.70;99.90;;;;;;5086412;28;20197;-69
2023/08/22 08:31:36;;;;;;;6.77;6.07;;;26.90;99.90;;;;;;5086322;28;20972;-69
2023/08/22 08:34:02;;;;;;;8.40;6.17;;;27.00;99.90;;;;;;5087310;28;20210;-70
2023/08/22 08:36:27;;;;;;;8.17;5.83;;;27.00;99.90;;;;;;5087533;28;20904;-70
2023/08/22 08:38:53;;;;;;;6.43;5.80;;;27.10;99.90;;;;;;5087152;28;20190;-71
2023/08/22 08:41:21;;;;;;;6.80;6.17;;;27.20;99.90;;;;;;5087077;28;20174;-72
2023/08/22 08:43:48;;;;;;;10.33;6.50;;;27.30;99.90;;;;;;5087025;28;20205;-70
2023/08/22 08:46:15;;;;;;;9.00;6.23;;;27.30;99.90;;;;;;5086952;28;20987;-70
2023/08/22 08:48:42;;;;;;;6.87;6.27;;;27.40;99.90;;;;;;5087171;28;20444;-70
2023/08/22 08:51:08;;;;;;;10.20;6.07;;;27.50;99.90;;;;;;5087313;28;20413;-70
2023/08/22 08:53:37;;;;;;;6.77;5.40;;;27.70;99.90;;;;;;5087298;28;21136;-70
2023/08/22 08:56:04;;;;;;;6.57;5.50;;;27.80;99.90;;;;;;5087620;28;20856;-70
2023/08/22 08:58:30;;;;;;;5.90;4.77;;;27.90;99.90;;;;;;5087355;28;20460;-70
2023/08/22 09:00:59;;;;;;;9.53;5.23;;;27.90;99.90;;;;;;5069103;28;20425;-69
2023/08/22 09:03:25;;;;;;;6.80;4.90;;;28.10;99.90;;;;;;5090557;28;20275;-69
2023/08/22 09:05:50;;;;;;;10.30;5.20;;;28.30;99.90;;;;;;5088914;28;20440;-67
2023/08/22 09:08:18;;;;;;;6.30;5.70;;;28.30;99.90;;;;;;5090333;28;20474;-70
2023/08/22 09:10:52;;;;;;;11.40;5.37;;;28.40;99.90;;;;;;5090668;28;20212;-69
2023/08/22 09:13:28;;;;;;;12.93;5.17;;;28.60;99.90;;;;;;5090412;28;20462;-67
2023/08/22 09:16:00;;;;;;;14.53;5.80;;;28.70;99.90;;;;;;5090567;28;20555;-67
2023/08/22 09:18:27;;;;;;;6.20;5.60;;;28.70;99.90;;;;;;5090137;28;20514;-71
2023/08/22 09:21:02;;;;;;;7.90;6.07;;;28.80;99.90;;;;;;5090115;28;21208;-68
2023/08/22 09:23:29;;;;;;;8.63;5.97;;;28.80;99.90;;;;;;5089966;28;20419;-71
2023/08/22 09:25:55;;;;;;;12.13;5.60;;;29.00;99.90;;;;;;5089941;28;20584;-68
2023/08/22 09:28:21;;;;;;;6.33;4.90;;;29.20;99.90;;;;;;5089848;28;20443;-69
2023/08/22 09:30:48;;;;;;;6.70;5.10;;;29.30;99.90;;;;;;5088429;28;20425;-68
2023/08/22 09:33:15;;;;;;;12.77;5.33;;;29.30;99.90;;;;;;5089635;28;20485;-68
2023/08/22 09:35:40;;;;;;;6.73;5.20;;;29.50;99.90;;;;;;5089518;28;20579;-69
2023/08/22 09:38:08;;;;;;;6.50;5.20;;;29.60;99.90;;;;;;5090043;28;20448;-70
2023/08/22 09:40:34;;;;;;;5.67;5.10;;;29.70;99.90;;;;;;5089600;28;20185;-71
2023/08/22 09:43:00;;;;;;;12.50;5.17;;;29.80;99.90;;;;;;5089666;28;20405;-70
2023/08/22 09:45:31;;;;;;;6.70;4.90;;;30.00;99.90;;;;;;5087981;28;20237;-68
2023/08/22 09:47:59;;;;;;;6.30;4.60;;;30.00;99.90;;;;;;5089323;28;20419;-69
2023/08/22 09:50:28;;;;;;;5.60;5.10;;;30.10;99.90;;;;;;5089413;28;20435;-68
2023/08/22 09:52:55;;;;;;;6.27;5.53;;;30.20;99.90;;;;;;5089445;28;20455;-68
2023/08/22 09:55:21;;;;;;;6.50;5.30;;;30.40;99.90;;;;;;5088954;28;20488;-68
2023/08/22 09:57:48;;;;;;;6.80;5.20;;;30.50;99.90;;;;;;5089386;28;20435;-69
2023/08/22 10:00:14;;;;;;;8.87;5.43;;;30.60;99.90;;;;;;5089311;28;20206;-69
2023/08/22 10:02:41;;;;;;;6.40;4.93;;;30.60;99.90;;;;;;5087647;28;20475;-69
2023/08/22 10:05:08;;;;;;;6.10;4.57;;;30.70;99.90;;;;;;5087383;28;20455;-68
2023/08/22 10:07:35;;;;;;;7.73;4.40;;;30.80;99.90;;;;;;5089216;28;20424;-69
2023/08/22 10:10:00;;;;;;;5.53;4.90;;;30.90;99.90;;;;;;5089052;28;20427;-69
2023/08/22 10:12:27;;;;;;;11.30;4.80;;;31.10;99.90;;;;;;5089165;28;20428;-69
2023/08/22 10:14:58;;;;;;;6.20;4.70;;;31.10;99.90;;;;;;5089128;28;20757;-69
2023/08/22 10:17:27;;;;;;;5.40;4.73;;;31.20;99.90;;;;;;5089607;28;20934;-69
2023/08/22 10:20:06;;;;;;;9.30;4.90;;;31.30;99.90;;;;;;5089549;28;20413;-67
2023/08/22 10:22:33;;;;;;;5.70;4.80;;;31.50;99.90;;;;;;5089628;28;20498;-67
2023/08/22 10:25:04;;;;;;;7.50;4.30;;;31.60;99.30;;;;;;5089256;28;20476;-67
2023/08/22 10:27:29;;;;;;;4.33;3.90;;;31.70;98.80;;;;;;5089510;28;20417;-68
2023/08/22 10:30:33;;;;;;;4.67;3.70;;;31.60;98.70;;;;;;5089498;28;20867;-67
2023/08/22 10:33:06;;;;;;;6.60;4.33;;;31.60;98.00;;;;;;5006396;28;20252;-68
2023/08/22 10:35:31;;;;;;;5.00;4.13;;;31.70;98.60;;;;;;5073072;28;20484;-68
2023/08/22 10:37:57;;;;;;;6.90;3.53;;;31.80;99.30;;;;;;5089087;28;20577;-70
2023/08/22 10:40:28;;;;;;;5.07;3.93;;;31.90;98.70;;;;;;5088762;28;20183;-69
2023/08/22 10:43:06;;;;;;;4.27;3.50;;;31.90;98.00;;;;;;5088470;28;20591;-68
2023/08/22 10:45:46;;;;;;;3.80;3.50;;;32.00;97.50;;;;;;5088211;28;20448;-69
2023/08/22 10:48:12;;;;;;;7.60;3.97;;;32.00;97.80;;;;;;5088488;28;20870;-68
2023/08/22 10:50:43;;;;;;;9.73;3.60;;;32.10;98.50;;;;;;5086901;28;20449;-67
2023/08/22 10:53:27;;;;;;;9.03;3.60;;;32.10;99.20;;;;;;5088040;28;20417;-67
2023/08/22 10:55:54;;;;;;;4.77;3.30;;;32.20;98.30;;;;;;5086215;28;20479;-68
2023/08/22 10:58:40;;;;;;;3.70;3.40;;;32.20;99.80;;;;;;5088043;28;20431;-68
2023/08/22 11:01:15;;;;;;;5.17;4.27;;;32.30;97.90;;;;;;5088069;28;20509;-68
2023/08/22 11:03:42;;;;;;;4.00;3.50;;;32.30;97.40;;;;;;5087780;28;20518;-68
2023/08/22 11:06:18;;;;;;;8.37;4.17;;;32.40;98.10;;;;;;5087767;28;20427;-68
2023/08/22 11:08:45;;;;;;;5.63;3.50;;;32.60;96.70;;;;;;5088095;28;20431;-68
2023/08/22 11:11:13;;;;;;;6.90;4.17;;;32.70;96.80;;;;;;5087916;28;20422;-68
2023/08/22 11:13:40;;;;;;;7.67;4.33;;;32.70;97.60;;;;;;5087898;28;20827;-68
2023/08/22 11:16:24;;;;;;;4.10;3.73;;;32.80;98.00;;;;;;5087788;28;20885;-70
2023/08/22 11:18:50;;;;;;;4.30;3.90;;;32.80;96.60;;;;;;5085916;28;20457;-69
2023/08/22 11:21:16;;;;;;;7.27;4.90;;;32.80;97.50;;;;;;5085694;28;20526;-68
2023/08/22 11:23:42;;;;;;;7.27;3.90;;;32.70;96.70;;;;;;5085517;28;20212;-68
2023/08/22 11:26:09;;;;;;;5.97;4.00;;;32.90;97.60;;;;;;5086906;28;20428;-68
2023/08/22 11:28:35;;;;;;;4.60;4.30;;;32.90;97.20;;;;;;5087261;28;21275;-68
2023/08/22 11:31:04;;;;;;;4.17;3.87;;;33.00;97.80;;;;;;5087351;28;20417;-68
2023/08/22 11:33:49;;;;;;;4.27;3.73;;;32.90;97.40;;;;;;5087282;28;20444;-69
2023/08/22 11:36:16;;;;;;;5.27;4.03;;;33.00;98.00;;;;;;5087765;28;20445;-69
2023/08/22 11:38:42;;;;;;;5.17;4.30;;;32.90;97.70;;;;;;5087820;28;20424;-69
2023/08/22 11:41:09;;;;;;;4.07;3.77;;;32.90;97.80;;;;;;5087445;28;20408;-68
2023/08/22 11:43:35;;;;;;;4.83;4.40;;;32.70;97.30;;;;;;5087167;28;20432;-68
2023/08/22 11:46:08;;;;;;;4.93;3.50;;;32.40;97.30;;;;;;5085732;28;21255;-69
2023/08/22 11:48:33;;;;;;;9.60;4.00;;;32.30;98.60;;;;;;5087414;28;20178;-68
2023/08/22 11:50:59;;;;;;;7.87;4.27;;;32.40;99.00;;;;;;5087342;28;20954;-68
2023/08/22 11:53:29;;;;;;;5.13;3.23;;;32.50;97.50;;;;;;5087280;28;20201;-69
2023/08/22 11:55:55;;;;;;;9.00;3.67;;;32.40;97.40;;;;;;5087416;28;20511;-68
2023/08/22 11:58:21;;;;;;;5.50;4.30;;;32.40;97.80;;;;;;5087239;28;21153;-68
2023/08/22 12:00:47;;;;;;;5.00;4.10;;;32.60;99.20;;;;;;5085991;28;20432;-68
2023/08/22 12:03:14;;;;;;;7.27;3.90;;;32.60;97.40;;;;;;5087444;28;20178;-68
2023/08/22 12:05:44;;;;;;;5.70;3.80;;;32.60;96.60;;;;;;5087227;28;20447;-68
2023/08/22 12:08:12;;;;;;;5.17;3.60;;;32.50;96.80;;;;;;5085852;28;20416;-69
2023/08/22 12:10:58;;;;;;;4.93;4.30;;;32.50;97.10;;;;;;5087142;28;20983;-69
2023/08/22 12:13:24;;;;;;;7.80;3.73;;;32.40;98.80;;;;;;5085551;28;20933;-68
2023/08/22 12:15:51;;;;;;;4.70;3.67;;;32.40;98.50;;;;;;5086992;28;20468;-68
2023/08/22 12:18:17;;;;;;;4.60;3.43;;;32.60;97.20;;;;;;5087237;28;20178;-67
2023/08/22 12:20:43;;;;;;;3.67;3.37;;;32.90;97.50;;;;;;5086185;28;20504;-69
2023/08/22 12:23:12;;;;;;;9.73;4.57;;;33.10;98.10;;;;;;5087521;28;20408;-67
2023/08/22 12:25:42;;;;;;;7.80;3.83;;;33.10;98.20;;;;;;5087798;28;21191;-67
2023/08/22 12:28:09;;;;;;;5.20;4.23;;;33.30;97.30;;;;;;5087646;28;20462;-69
2023/08/22 12:30:36;;;;;;;4.40;3.73;;;33.40;98.00;;;;;;5087540;28;20436;-68
2023/08/22 12:33:03;;;;;;;4.97;3.77;;;33.60;97.60;;;;;;5087858;28;21062;-69
2023/08/22 12:35:29;;;;;;;4.63;4.20;;;33.50;96.20;;;;;;5087418;28;20921;-70
2023/08/22 12:37:55;;;;;;;4.87;4.00;;;33.30;96.00;;;;;;5089285;28;20986;-67
2023/08/22 12:40:20;;;;;;;9.13;4.47;;;33.10;99.90;;;;;;5090062;28;20481;-67